sensor_id;sensor_type;location;lat;lon;timestamp;P1;durP1;ratioP1;P2;durP2;ratioP2
8654;SDS011;13500;52.514;13.462;2023-08-06T00:00:24;8.00;;;7.20;;
8654;SDS011;13500;52.514;13.462;2023-08-06T00:02:52;8.00;;;7.10;;
8654;SDS011;13500;52.514;13.462;2023-08-06T00:05:21;7.90;;;7.20;;
8654;SDS011;13500;52.514;13.462;2023-08-06T00:07:50;8.23;;;7.53;;
8654;SDS011;13500;52.514;13.462;2023-08-06T00:10:18;8.60;;;7.73;;
8654;SDS011;13500;52.514;13.462;2023-08-06T00:12:46;8.63;;;7.57;;
8654;SDS011;13500;52.514;13.462;2023-08-06T00:15:15;7.40;;;6.70;;
8654;SDS011;13500;52.514;13.462;2023-08-06T00:17:43;8.40;;;7.40;;
8654;SDS011;13500;52.514;13.462;2023-08-06T00:20:11;7.80;;;7.10;;
8654;SDS011;13500;52.514;13.462;2023-08-06T00:22:40;7.90;;;7.10;;
8654;SDS011;13500;52.514;13.462;2023-08-06T00:25:08;8.20;;;7.40;;
8654;SDS011;13500;52.514;13.462;2023-08-06T00:27:36;8.20;;;7.43;;
8654;SDS011;13500;52.514;13.462;2023-08-06T00:30:05;8.17;;;6.80;;
8654;SDS011;13500;52.514;13.462;2023-08-06T00:32:33;9.63;;;7.30;;
8654;SDS011;13500;52.514;13.462;2023-08-06T00:35:01;8.20;;;7.40;;
8654;SDS011;13500;52.514;13.462;2023-08-06T00:37:30;7.77;;;6.97;;
8654;SDS011;13500;52.514;13.462;2023-08-06T00:40:00;7.70;;;7.00;;
8654;SDS011;13500;52.514;13.462;2023-08-06T00:42:28;7.47;;;6.77;;
8654;SDS011;13500;52.514;13.462;2023-08-06T00:44:56;8.07;;;7.37;;
8654;SDS011;13500;52.514;13.462;2023-08-06T00:47:24;8.10;;;7.40;;
8654;SDS011;13500;52.514;13.462;2023-08-06T00:49:52;7.97;;;7.17;;
8654;SDS011;13500;52.514;13.462;2023-08-06T00:52:20;8.17;;;7.33;;
8654;SDS011;13500;52.514;13.462;2023-08-06T00:54:48;7.60;;;6.90;;
8654;SDS011;13500;52.514;13.462;2023-08-06T00:57:17;7.80;;;7.10;;
8654;SDS011;13500;52.514;13.462;2023-08-06T00:59:45;7.83;;;6.50;;
8654;SDS011;13500;52.514;13.462;2023-08-06T01:02:13;8.13;;;7.33;;
8654;SDS011;13500;52.514;13.462;2023-08-06T01:04:41;8.20;;;7.40;;
8654;SDS011;13500;52.514;13.462;2023-08-06T01:07:12;7.93;;;7.13;;
8654;SDS011;13500;52.514;13.462;2023-08-06T01:09:45;7.70;;;6.93;;
8654;SDS011;13500;52.514;13.462;2023-08-06T01:12:22;8.27;;;7.40;;
8654;SDS011;13500;52.514;13.462;2023-08-06T01:14:57;7.63;;;6.93;;
8654;SDS011;13500;52.514;13.462;2023-08-06T01:17:29;7.43;;;6.73;;
8654;SDS011;13500;52.514;13.462;2023-08-06T01:19:58;7.87;;;7.20;;
8654;SDS011;13500;52.514;13.462;2023-08-06T01:22:27;8.37;;;7.60;;
8654;SDS011;13500;52.514;13.462;2023-08-06T01:24:55;8.17;;;7.40;;
8654;SDS011;13500;52.514;13.462;2023-08-06T01:27:24;8.53;;;7.80;;
8654;SDS011;13500;52.514;13.462;2023-08-06T01:29:57;8.23;;;7.53;;
8654;SDS011;13500;52.514;13.462;2023-08-06T01:32:30;8.43;;;7.73;;
8654;SDS011;13500;52.514;13.462;2023-08-06T01:34:59;8.07;;;7.40;;
8654;SDS011;13500;52.514;13.462;2023-08-06T01:37:30;8.20;;;7.50;;
8654;SDS011;13500;52.514;13.462;2023-08-06T01:40:05;8.33;;;7.63;;
8654;SDS011;13500;52.514;13.462;2023-08-06T01:42:34;8.40;;;7.60;;
8654;SDS011;13500;52.514;13.462;2023-08-06T01:45:02;8.40;;;7.60;;
8654;SDS011;13500;52.514;13.462;2023-08-06T01:47:30;9.10;;;8.40;;
8654;SDS011;13500;52.514;13.462;2023-08-06T01:49:58;8.87;;;8.00;;
8654;SDS011;13500;52.514;13.462;2023-08-06T01:52:27;9.40;;;8.33;;
8654;SDS011;13500;52.514;13.462;2023-08-06T01:54:56;9.20;;;8.40;;
8654;SDS011;13500;52.514;13.462;2023-08-06T01:57:24;9.67;;;8.77;;
8654;SDS011;13500;52.514;13.462;2023-08-06T01:59:52;9.27;;;8.37;;
8654;SDS011;13500;52.514;13.462;2023-08-06T02:02:20;9.30;;;8.50;;
8654;SDS011;13500;52.514;13.462;2023-08-06T02:04:48;9.80;;;9.00;;
8654;SDS011;13500;52.514;13.462;2023-08-06T02:07:16;9.27;;;8.47;;
8654;SDS011;13500;52.514;13.462;2023-08-06T02:09:44;9.30;;;8.50;;
8654;SDS011;13500;52.514;13.462;2023-08-06T02:12:13;9.57;;;8.77;;
8654;SDS011;13500;52.514;13.462;2023-08-06T02:14:41;9.23;;;8.43;;
8654;SDS011;13500;52.514;13.462;2023-08-06T02:17:09;10.10;;;9.30;;
8654;SDS011;13500;52.514;13.462;2023-08-06T02:19:37;9.17;;;8.27;;
8654;SDS011;13500;52.514;13.462;2023-08-06T02:22:05;9.73;;;8.93;;
8654;SDS011;13500;52.514;13.462;2023-08-06T02:24:35;9.33;;;8.43;;
8654;SDS011;13500;52.514;13.462;2023-08-06T02:27:03;8.80;;;8.00;;
8654;SDS011;13500;52.514;13.462;2023-08-06T02:29:33;9.50;;;8.50;;
8654;SDS011;13500;52.514;13.462;2023-08-06T02:32:01;9.60;;;8.70;;
8654;SDS011;13500;52.514;13.462;2023-08-06T02:34:29;8.93;;;8.13;;
8654;SDS011;13500;52.514;13.462;2023-08-06T02:36:57;9.60;;;8.70;;
8654;SDS011;13500;52.514;13.462;2023-08-06T02:39:25;9.13;;;8.33;;
8654;SDS011;13500;52.514;13.462;2023-08-06T02:41:53;9.60;;;8.70;;
8654;SDS011;13500;52.514;13.462;2023-08-06T02:44:22;8.63;;;7.87;;
8654;SDS011;13500;52.514;13.462;2023-08-06T02:46:51;8.70;;;7.90;;
8654;SDS011;13500;52.514;13.462;2023-08-06T02:49:19;8.47;;;7.77;;
8654;SDS011;13500;52.514;13.462;2023-08-06T02:51:47;9.17;;;8.37;;
8654;SDS011;13500;52.514;13.462;2023-08-06T02:54:16;8.27;;;7.47;;
8654;SDS011;13500;52.514;13.462;2023-08-06T02:56:44;7.63;;;7.03;;
8654;SDS011;13500;52.514;13.462;2023-08-06T02:59:19;8.17;;;7.47;;
8654;SDS011;13500;52.514;13.462;2023-08-06T03:02:08;8.23;;;7.53;;
8654;SDS011;13500;52.514;13.462;2023-08-06T03:04:48;8.43;;;7.63;;
8654;SDS011;13500;52.514;13.462;2023-08-06T03:07:19;8.20;;;7.37;;
8654;SDS011;13500;52.514;13.462;2023-08-06T03:09:53;7.70;;;6.70;;
8654;SDS011;13500;52.514;13.462;2023-08-06T03:12:21;8.70;;;7.93;;
8654;SDS011;13500;52.514;13.462;2023-08-06T03:14:49;8.07;;;7.47;;
8654;SDS011;13500;52.514;13.462;2023-08-06T03:17:19;9.27;;;8.47;;
8654;SDS011;13500;52.514;13.462;2023-08-06T03:19:47;8.90;;;8.30;;
8654;SDS011;13500;52.514;13.462;2023-08-06T03:22:17;11.03;;;9.93;;
8654;SDS011;13500;52.514;13.462;2023-08-06T03:24:45;11.00;;;10.10;;
8654;SDS011;13500;52.514;13.462;2023-08-06T03:27:13;8.57;;;7.77;;
8654;SDS011;13500;52.514;13.462;2023-08-06T03:29:42;9.30;;;8.50;;
8654;SDS011;13500;52.514;13.462;2023-08-06T03:32:12;9.40;;;8.60;;
8654;SDS011;13500;52.514;13.462;2023-08-06T03:34:42;9.47;;;8.57;;
8654;SDS011;13500;52.514;13.462;2023-08-06T03:37:10;9.93;;;8.97;;
8654;SDS011;13500;52.514;13.462;2023-08-06T03:39:38;10.07;;;9.17;;
8654;SDS011;13500;52.514;13.462;2023-08-06T03:42:06;10.00;;;9.20;;
8654;SDS011;13500;52.514;13.462;2023-08-06T03:44:34;10.43;;;9.57;;
8654;SDS011;13500;52.514;13.462;2023-08-06T03:47:02;9.80;;;8.90;;
8654;SDS011;13500;52.514;13.462;2023-08-06T03:49:31;10.50;;;9.53;;
8654;SDS011;13500;52.514;13.462;2023-08-06T03:52:00;8.80;;;8.10;;
8654;SDS011;13500;52.514;13.462;2023-08-06T03:54:28;8.67;;;7.97;;
8654;SDS011;13500;52.514;13.462;2023-08-06T03:56:56;8.80;;;7.93;;
8654;SDS011;13500;52.514;13.462;2023-08-06T03:59:24;8.60;;;7.90;;
8654;SDS011;13500;52.514;13.462;2023-08-06T04:01:52;9.90;;;9.00;;
8654;SDS011;13500;52.514;13.462;2023-08-06T04:04:20;9.00;;;8.27;;
8654;SDS011;13500;52.514;13.462;2023-08-06T04:06:48;8.77;;;8.07;;
8654;SDS011;13500;52.514;13.462;2023-08-06T04:09:18;8.83;;;8.13;;
8654;SDS011;13500;52.514;13.462;2023-08-06T04:11:46;9.20;;;8.40;;
8654;SDS011;13500;52.514;13.462;2023-08-06T04:14:14;9.60;;;8.17;;
8654;SDS011;13500;52.514;13.462;2023-08-06T04:16:42;8.13;;;7.53;;
8654;SDS011;13500;52.514;13.462;2023-08-06T04:19:10;8.93;;;8.10;;
8654;SDS011;13500;52.514;13.462;2023-08-06T04:21:40;8.10;;;7.40;;
8654;SDS011;13500;52.514;13.462;2023-08-06T04:24:10;8.97;;;8.17;;
8654;SDS011;13500;52.514;13.462;2023-08-06T04:26:39;7.93;;;7.23;;
8654;SDS011;13500;52.514;13.462;2023-08-06T04:29:07;8.10;;;7.30;;
8654;SDS011;13500;52.514;13.462;2023-08-06T04:31:35;7.57;;;6.87;;
8654;SDS011;13500;52.514;13.462;2023-08-06T04:34:03;7.50;;;6.90;;
8654;SDS011;13500;52.514;13.462;2023-08-06T04:36:31;7.70;;;7.00;;
8654;SDS011;13500;52.514;13.462;2023-08-06T04:38:59;8.37;;;7.67;;
8654;SDS011;13500;52.514;13.462;2023-08-06T04:41:27;8.70;;;7.90;;
8654;SDS011;13500;52.514;13.462;2023-08-06T04:43:57;8.50;;;7.73;;
8654;SDS011;13500;52.514;13.462;2023-08-06T04:46:25;8.13;;;7.50;;
8654;SDS011;13500;52.514;13.462;2023-08-06T04:48:53;8.13;;;7.43;;
8654;SDS011;13500;52.514;13.462;2023-08-06T04:51:21;7.90;;;7.20;;
8654;SDS011;13500;52.514;13.462;2023-08-06T04:53:49;8.07;;;7.37;;
8654;SDS011;13500;52.514;13.462;2023-08-06T04:56:17;8.00;;;7.40;;
8654;SDS011;13500;52.514;13.462;2023-08-06T04:58:45;7.80;;;7.20;;
8654;SDS011;13500;52.514;13.462;2023-08-06T05:01:15;8.90;;;8.10;;
8654;SDS011;13500;52.514;13.462;2023-08-06T05:03:43;8.77;;;8.03;;
8654;SDS011;13500;52.514;13.462;2023-08-06T05:06:11;8.13;;;7.53;;
8654;SDS011;13500;52.514;13.462;2023-08-06T05:08:38;9.20;;;8.40;;
8654;SDS011;13500;52.514;13.462;2023-08-06T05:11:06;8.30;;;7.70;;
8654;SDS011;13500;52.514;13.462;2023-08-06T05:13:34;8.00;;;7.40;;
8654;SDS011;13500;52.514;13.462;2023-08-06T05:16:02;8.50;;;7.80;;
8654;SDS011;13500;52.514;13.462;2023-08-06T05:18:32;7.80;;;7.20;;
8654;SDS011;13500;52.514;13.462;2023-08-06T05:21:01;8.60;;;7.90;;
8654;SDS011;13500;52.514;13.462;2023-08-06T05:23:29;8.50;;;7.70;;
8654;SDS011;13500;52.514;13.462;2023-08-06T05:25:56;7.77;;;7.17;;
8654;SDS011;13500;52.514;13.462;2023-08-06T05:28:24;8.43;;;7.63;;
8654;SDS011;13500;52.514;13.462;2023-08-06T05:30:52;7.70;;;7.00;;
8654;SDS011;13500;52.514;13.462;2023-08-06T05:33:20;8.13;;;7.43;;
8654;SDS011;13500;52.514;13.462;2023-08-06T05:35:50;8.43;;;7.63;;
8654;SDS011;13500;52.514;13.462;2023-08-06T05:38:18;8.23;;;7.50;;
8654;SDS011;13500;52.514;13.462;2023-08-06T05:40:46;7.60;;;6.90;;
8654;SDS011;13500;52.514;13.462;2023-08-06T05:43:14;7.90;;;7.20;;
8654;SDS011;13500;52.514;13.462;2023-08-06T05:45:43;7.97;;;7.23;;
8654;SDS011;13500;52.514;13.462;2023-08-06T05:48:12;7.10;;;6.50;;
8654;SDS011;13500;52.514;13.462;2023-08-06T05:50:40;8.27;;;7.57;;
8654;SDS011;13500;52.514;13.462;2023-08-06T05:53:09;7.43;;;6.70;;
8654;SDS011;13500;52.514;13.462;2023-08-06T05:55:38;7.40;;;6.30;;
8654;SDS011;13500;52.514;13.462;2023-08-06T05:58:06;16.37;;;14.77;;
8654;SDS011;13500;52.514;13.462;2023-08-06T06:00:34;10.93;;;9.83;;
8654;SDS011;13500;52.514;13.462;2023-08-06T06:03:02;7.67;;;6.97;;
8654;SDS011;13500;52.514;13.462;2023-08-06T06:05:30;7.87;;;7.27;;
8654;SDS011;13500;52.514;13.462;2023-08-06T06:07:58;8.43;;;7.70;;
8654;SDS011;13500;52.514;13.462;2023-08-06T06:10:27;7.60;;;6.90;;
8654;SDS011;13500;52.514;13.462;2023-08-06T06:12:55;9.10;;;8.30;;
8654;SDS011;13500;52.514;13.462;2023-08-06T06:15:23;8.20;;;7.50;;
8654;SDS011;13500;52.514;13.462;2023-08-06T06:17:51;8.33;;;7.63;;
8654;SDS011;13500;52.514;13.462;2023-08-06T06:20:19;7.93;;;7.30;;
8654;SDS011;13500;52.514;13.462;2023-08-06T06:22:47;8.47;;;7.77;;
8654;SDS011;13500;52.514;13.462;2023-08-06T06:25:15;8.30;;;7.70;;
8654;SDS011;13500;52.514;13.462;2023-08-06T06:27:44;8.67;;;7.97;;
8654;SDS011;13500;52.514;13.462;2023-08-06T06:30:12;8.83;;;8.13;;
8654;SDS011;13500;52.514;13.462;2023-08-06T06:32:40;8.73;;;8.03;;
8654;SDS011;13500;52.514;13.462;2023-08-06T06:35:08;8.83;;;8.10;;
8654;SDS011;13500;52.514;13.462;2023-08-06T06:37:37;7.97;;;7.37;;
8654;SDS011;13500;52.514;13.462;2023-08-06T06:40:05;8.47;;;7.77;;
8654;SDS011;13500;52.514;13.462;2023-08-06T06:42:34;8.80;;;8.10;;
8654;SDS011;13500;52.514;13.462;2023-08-06T06:45:08;7.80;;;7.20;;
8654;SDS011;13500;52.514;13.462;2023-08-06T06:47:37;7.83;;;7.23;;
8654;SDS011;13500;52.514;13.462;2023-08-06T06:50:06;7.23;;;6.63;;
8654;SDS011;13500;52.514;13.462;2023-08-06T06:52:35;7.10;;;6.50;;
8654;SDS011;13500;52.514;13.462;2023-08-06T06:55:03;7.40;;;6.80;;
8654;SDS011;13500;52.514;13.462;2023-08-06T06:57:32;7.27;;;6.67;;
8654;SDS011;13500;52.514;13.462;2023-08-06T07:00:00;6.67;;;6.07;;
8654;SDS011;13500;52.514;13.462;2023-08-06T07:02:33;6.17;;;5.67;;
8654;SDS011;13500;52.514;13.462;2023-08-06T07:05:02;6.17;;;5.70;;
8654;SDS011;13500;52.514;13.462;2023-08-06T07:07:30;6.50;;;5.90;;
8654;SDS011;13500;52.514;13.462;2023-08-06T07:09:57;6.20;;;5.70;;
8654;SDS011;13500;52.514;13.462;2023-08-06T07:12:26;6.97;;;6.37;;
8654;SDS011;13500;52.514;13.462;2023-08-06T07:14:53;6.70;;;6.10;;
8654;SDS011;13500;52.514;13.462;2023-08-06T07:17:21;6.47;;;5.97;;
8654;SDS011;13500;52.514;13.462;2023-08-06T07:19:51;6.23;;;5.73;;
8654;SDS011;13500;52.514;13.462;2023-08-06T07:22:19;6.00;;;5.40;;
8654;SDS011;13500;52.514;13.462;2023-08-06T07:24:47;6.10;;;5.60;;
8654;SDS011;13500;52.514;13.462;2023-08-06T07:27:14;6.47;;;5.87;;
8654;SDS011;13500;52.514;13.462;2023-08-06T07:29:42;6.90;;;6.30;;
8654;SDS011;13500;52.514;13.462;2023-08-06T07:32:10;5.90;;;5.50;;
8654;SDS011;13500;52.514;13.462;2023-08-06T07:34:40;6.57;;;5.93;;
8654;SDS011;13500;52.514;13.462;2023-08-06T07:37:09;6.73;;;6.13;;
8654;SDS011;13500;52.514;13.462;2023-08-06T07:39:37;6.73;;;6.13;;
8654;SDS011;13500;52.514;13.462;2023-08-06T07:42:06;6.57;;;5.97;;
8654;SDS011;13500;52.514;13.462;2023-08-06T07:44:34;6.13;;;5.63;;
8654;SDS011;13500;52.514;13.462;2023-08-06T07:47:02;6.50;;;6.00;;
8654;SDS011;13500;52.514;13.462;2023-08-06T07:49:30;6.30;;;5.80;;
8654;SDS011;13500;52.514;13.462;2023-08-06T07:51:58;6.17;;;5.67;;
8654;SDS011;13500;52.514;13.462;2023-08-06T07:54:27;6.70;;;6.20;;
8654;SDS011;13500;52.514;13.462;2023-08-06T07:56:55;6.60;;;6.00;;
8654;SDS011;13500;52.514;13.462;2023-08-06T07:59:23;7.57;;;6.87;;
8654;SDS011;13500;52.514;13.462;2023-08-06T08:01:51;7.13;;;6.53;;
8654;SDS011;13500;52.514;13.462;2023-08-06T08:04:19;7.33;;;6.73;;
8654;SDS011;13500;52.514;13.462;2023-08-06T08:06:48;8.10;;;7.27;;
8654;SDS011;13500;52.514;13.462;2023-08-06T08:09:16;7.63;;;6.93;;
8654;SDS011;13500;52.514;13.462;2023-08-06T08:11:45;8.70;;;7.97;;
8654;SDS011;13500;52.514;13.462;2023-08-06T08:14:13;8.93;;;8.17;;
8654;SDS011;13500;52.514;13.462;2023-08-06T08:16:41;8.43;;;7.67;;
8654;SDS011;13500;52.514;13.462;2023-08-06T08:19:09;9.23;;;8.40;;
8654;SDS011;13500;52.514;13.462;2023-08-06T08:21:37;9.60;;;8.80;;
8654;SDS011;13500;52.514;13.462;2023-08-06T08:24:05;9.13;;;8.43;;
8654;SDS011;13500;52.514;13.462;2023-08-06T08:26:33;9.40;;;8.47;;
8654;SDS011;13500;52.514;13.462;2023-08-06T08:29:03;9.27;;;8.37;;
8654;SDS011;13500;52.514;13.462;2023-08-06T08:31:31;9.63;;;8.83;;
8654;SDS011;13500;52.514;13.462;2023-08-06T08:34:05;8.93;;;8.23;;
8654;SDS011;13500;52.514;13.462;2023-08-06T08:36:33;8.67;;;7.97;;
8654;SDS011;13500;52.514;13.462;2023-08-06T08:39:01;8.83;;;8.13;;
8654;SDS011;13500;52.514;13.462;2023-08-06T08:41:30;8.40;;;7.70;;
8654;SDS011;13500;52.514;13.462;2023-08-06T08:43:59;8.50;;;7.80;;
8654;SDS011;13500;52.514;13.462;2023-08-06T08:46:28;8.70;;;7.90;;
8654;SDS011;13500;52.514;13.462;2023-08-06T08:49:00;9.17;;;8.40;;
8654;SDS011;13500;52.514;13.462;2023-08-06T08:51:29;8.40;;;7.70;;
8654;SDS011;13500;52.514;13.462;2023-08-06T08:53:58;8.80;;;7.97;;
8654;SDS011;13500;52.514;13.462;2023-08-06T08:56:26;8.53;;;7.83;;
8654;SDS011;13500;52.514;13.462;2023-08-06T08:58:53;8.37;;;7.67;;
8654;SDS011;13500;52.514;13.462;2023-08-06T09:01:22;9.23;;;8.50;;
8654;SDS011;13500;52.514;13.462;2023-08-06T09:03:51;8.97;;;8.27;;
8654;SDS011;13500;52.514;13.462;2023-08-06T09:06:20;9.23;;;8.53;;
8654;SDS011;13500;52.514;13.462;2023-08-06T09:08:51;9.17;;;8.37;;
8654;SDS011;13500;52.514;13.462;2023-08-06T09:11:24;9.53;;;8.73;;
8654;SDS011;13500;52.514;13.462;2023-08-06T09:13:52;9.40;;;8.60;;
8654;SDS011;13500;52.514;13.462;2023-08-06T09:16:23;9.33;;;8.63;;
8654;SDS011;13500;52.514;13.462;2023-08-06T09:18:53;9.80;;;9.00;;
8654;SDS011;13500;52.514;13.462;2023-08-06T09:21:21;10.73;;;9.83;;
8654;SDS011;13500;52.514;13.462;2023-08-06T09:23:49;10.47;;;9.57;;
8654;SDS011;13500;52.514;13.462;2023-08-06T09:26:17;10.43;;;9.63;;
8654;SDS011;13500;52.514;13.462;2023-08-06T09:28:45;11.10;;;10.10;;
8654;SDS011;13500;52.514;13.462;2023-08-06T09:31:13;11.40;;;10.40;;
8654;SDS011;13500;52.514;13.462;2023-08-06T09:33:41;10.73;;;9.73;;
8654;SDS011;13500;52.514;13.462;2023-08-06T09:36:12;10.63;;;9.73;;
8654;SDS011;13500;52.514;13.462;2023-08-06T09:38:40;10.73;;;9.83;;
8654;SDS011;13500;52.514;13.462;2023-08-06T09:41:08;10.60;;;9.70;;
8654;SDS011;13500;52.514;13.462;2023-08-06T09:43:42;11.07;;;10.17;;
8654;SDS011;13500;52.514;13.462;2023-08-06T09:46:10;10.30;;;9.50;;
8654;SDS011;13500;52.514;13.462;2023-08-06T09:48:40;10.23;;;9.43;;
8654;SDS011;13500;52.514;13.462;2023-08-06T09:51:08;10.10;;;9.27;;
8654;SDS011;13500;52.514;13.462;2023-08-06T09:53:38;9.77;;;9.07;;
8654;SDS011;13500;52.514;13.462;2023-08-06T09:56:08;8.00;;;7.40;;
8654;SDS011;13500;52.514;13.462;2023-08-06T09:58:37;7.73;;;6.90;;
8654;SDS011;13500;52.514;13.462;2023-08-06T10:01:05;6.23;;;5.73;;
8654;SDS011;13500;52.514;13.462;2023-08-06T10:03:34;6.53;;;5.93;;
8654;SDS011;13500;52.514;13.462;2023-08-06T10:06:03;5.40;;;5.00;;
8654;SDS011;13500;52.514;13.462;2023-08-06T10:08:33;5.83;;;5.43;;
8654;SDS011;13500;52.514;13.462;2023-08-06T10:11:03;5.17;;;4.77;;
8654;SDS011;13500;52.514;13.462;2023-08-06T10:13:32;6.37;;;5.77;;
8654;SDS011;13500;52.514;13.462;2023-08-06T10:16:01;5.57;;;4.77;;
8654;SDS011;13500;52.514;13.462;2023-08-06T10:18:32;5.63;;;5.17;;
8654;SDS011;13500;52.514;13.462;2023-08-06T10:21:01;5.50;;;5.10;;
8654;SDS011;13500;52.514;13.462;2023-08-06T10:23:35;4.57;;;4.17;;
8654;SDS011;13500;52.514;13.462;2023-08-06T10:26:06;4.27;;;3.87;;
8654;SDS011;13500;52.514;13.462;2023-08-06T10:28:35;4.27;;;3.80;;
8654;SDS011;13500;52.514;13.462;2023-08-06T10:31:04;4.03;;;3.60;;
8654;SDS011;13500;52.514;13.462;2023-08-06T10:33:42;4.10;;;3.80;;
8654;SDS011;13500;52.514;13.462;2023-08-06T10:36:11;4.57;;;4.13;;
8654;SDS011;13500;52.514;13.462;2023-08-06T10:38:45;4.50;;;4.10;;
8654;SDS011;13500;52.514;13.462;2023-08-06T10:41:16;4.70;;;4.30;;
8654;SDS011;13500;52.514;13.462;2023-08-06T10:43:49;4.60;;;4.27;;
8654;SDS011;13500;52.514;13.462;2023-08-06T10:46:22;5.57;;;4.30;;
8654;SDS011;13500;52.514;13.462;2023-08-06T10:48:51;4.07;;;3.67;;
8654;SDS011;13500;52.514;13.462;2023-08-06T10:51:19;5.73;;;5.00;;
8654;SDS011;13500;52.514;13.462;2023-08-06T10:53:47;4.63;;;4.23;;
8654;SDS011;13500;52.514;13.462;2023-08-06T10:56:18;4.10;;;3.70;;
8654;SDS011;13500;52.514;13.462;2023-08-06T10:58:49;5.00;;;4.50;;
8654;SDS011;13500;52.514;13.462;2023-08-06T11:01:17;4.30;;;3.90;;
8654;SDS011;13500;52.514;13.462;2023-08-06T11:03:46;4.33;;;3.93;;
8654;SDS011;13500;52.514;13.462;2023-08-06T11:06:16;4.53;;;4.10;;
8654;SDS011;13500;52.514;13.462;2023-08-06T11:08:47;4.83;;;4.40;;
8654;SDS011;13500;52.514;13.462;2023-08-06T11:11:15;4.53;;;4.13;;
8654;SDS011;13500;52.514;13.462;2023-08-06T11:13:45;4.20;;;3.87;;
8654;SDS011;13500;52.514;13.462;2023-08-06T11:16:14;4.53;;;4.13;;
8654;SDS011;13500;52.514;13.462;2023-08-06T11:18:43;5.03;;;4.53;;
8654;SDS011;13500;52.514;13.462;2023-08-06T11:21:11;4.83;;;4.43;;
8654;SDS011;13500;52.514;13.462;2023-08-06T11:23:39;5.17;;;4.73;;
8654;SDS011;13500;52.514;13.462;2023-08-06T11:26:08;5.43;;;4.93;;
8654;SDS011;13500;52.514;13.462;2023-08-06T11:28:37;6.67;;;6.07;;
8654;SDS011;13500;52.514;13.462;2023-08-06T11:31:05;6.30;;;5.70;;
8654;SDS011;13500;52.514;13.462;2023-08-06T11:33:33;5.73;;;5.27;;
8654;SDS011;13500;52.514;13.462;2023-08-06T11:36:01;5.43;;;4.97;;
8654;SDS011;13500;52.514;13.462;2023-08-06T11:38:29;6.00;;;5.50;;
8654;SDS011;13500;52.514;13.462;2023-08-06T11:40:57;6.00;;;5.37;;
8654;SDS011;13500;52.514;13.462;2023-08-06T11:43:25;5.90;;;5.40;;
8654;SDS011;13500;52.514;13.462;2023-08-06T11:45:55;5.63;;;5.13;;
8654;SDS011;13500;52.514;13.462;2023-08-06T11:48:23;6.30;;;5.80;;
8654;SDS011;13500;52.514;13.462;2023-08-06T11:50:53;5.40;;;5.00;;
8654;SDS011;13500;52.514;13.462;2023-08-06T11:53:21;6.33;;;5.73;;
8654;SDS011;13500;52.514;13.462;2023-08-06T11:55:49;6.50;;;5.90;;
8654;SDS011;13500;52.514;13.462;2023-08-06T11:58:18;6.53;;;5.97;;
8654;SDS011;13500;52.514;13.462;2023-08-06T12:00:46;6.03;;;5.53;;
8654;SDS011;13500;52.514;13.462;2023-08-06T12:03:15;6.33;;;5.83;;
8654;SDS011;13500;52.514;13.462;2023-08-06T12:05:46;6.40;;;5.80;;
8654;SDS011;13500;52.514;13.462;2023-08-06T12:08:14;6.80;;;6.30;;
8654;SDS011;13500;52.514;13.462;2023-08-06T12:10:42;6.57;;;6.07;;
8654;SDS011;13500;52.514;13.462;2023-08-06T12:13:10;6.93;;;6.23;;
8654;SDS011;13500;52.514;13.462;2023-08-06T12:15:39;6.73;;;6.13;;
8654;SDS011;13500;52.514;13.462;2023-08-06T12:18:07;7.70;;;7.00;;
8654;SDS011;13500;52.514;13.462;2023-08-06T12:20:37;6.83;;;6.20;;
8654;SDS011;13500;52.514;13.462;2023-08-06T12:23:05;7.00;;;6.40;;
8654;SDS011;13500;52.514;13.462;2023-08-06T12:25:33;6.50;;;6.00;;
8654;SDS011;13500;52.514;13.462;2023-08-06T12:28:01;8.07;;;7.37;;
8654;SDS011;13500;52.514;13.462;2023-08-06T12:30:29;7.53;;;6.93;;
8654;SDS011;13500;52.514;13.462;2023-08-06T12:32:57;7.37;;;6.77;;
8654;SDS011;13500;52.514;13.462;2023-08-06T12:35:25;7.90;;;7.20;;
8654;SDS011;13500;52.514;13.462;2023-08-06T12:37:54;7.03;;;6.43;;
8654;SDS011;13500;52.514;13.462;2023-08-06T12:40:24;7.03;;;6.43;;
8654;SDS011;13500;52.514;13.462;2023-08-06T12:43:04;7.40;;;6.70;;
8654;SDS011;13500;52.514;13.462;2023-08-06T12:45:32;6.60;;;6.00;;
8654;SDS011;13500;52.514;13.462;2023-08-06T12:48:00;6.63;;;6.03;;
8654;SDS011;13500;52.514;13.462;2023-08-06T12:50:28;6.60;;;6.10;;
8654;SDS011;13500;52.514;13.462;2023-08-06T12:52:58;7.00;;;6.40;;
8654;SDS011;13500;52.514;13.462;2023-08-06T12:55:26;7.13;;;6.43;;
8654;SDS011;13500;52.514;13.462;2023-08-06T12:57:57;6.93;;;6.33;;
8654;SDS011;13500;52.514;13.462;2023-08-06T13:00:25;7.10;;;6.50;;
8654;SDS011;13500;52.514;13.462;2023-08-06T13:02:53;6.70;;;6.10;;
8654;SDS011;13500;52.514;13.462;2023-08-06T13:05:21;7.83;;;6.93;;
8654;SDS011;13500;52.514;13.462;2023-08-06T13:07:49;8.87;;;8.03;;
8654;SDS011;13500;52.514;13.462;2023-08-06T13:10:19;7.97;;;7.17;;
8654;SDS011;13500;52.514;13.462;2023-08-06T13:12:48;7.30;;;6.60;;
8654;SDS011;13500;52.514;13.462;2023-08-06T13:15:16;8.30;;;7.50;;
8654;SDS011;13500;52.514;13.462;2023-08-06T13:17:46;6.57;;;5.97;;
8654;SDS011;13500;52.514;13.462;2023-08-06T13:20:14;7.97;;;7.17;;
8654;SDS011;13500;52.514;13.462;2023-08-06T13:22:46;8.40;;;7.60;;
8654;SDS011;13500;52.514;13.462;2023-08-06T13:25:16;7.87;;;7.10;;
8654;SDS011;13500;52.514;13.462;2023-08-06T13:27:46;6.87;;;6.27;;
8654;SDS011;13500;52.514;13.462;2023-08-06T13:30:14;7.53;;;6.93;;
8654;SDS011;13500;52.514;13.462;2023-08-06T13:32:43;7.83;;;7.07;;
8654;SDS011;13500;52.514;13.462;2023-08-06T13:35:11;7.67;;;6.97;;
8654;SDS011;13500;52.514;13.462;2023-08-06T13:37:39;7.73;;;7.03;;
8654;SDS011;13500;52.514;13.462;2023-08-06T13:40:07;6.57;;;5.97;;
8654;SDS011;13500;52.514;13.462;2023-08-06T13:42:36;6.20;;;5.60;;
8654;SDS011;13500;52.514;13.462;2023-08-06T13:45:06;6.07;;;5.57;;
8654;SDS011;13500;52.514;13.462;2023-08-06T13:47:34;6.20;;;5.60;;
8654;SDS011;13500;52.514;13.462;2023-08-06T13:50:02;6.23;;;5.63;;
8654;SDS011;13500;52.514;13.462;2023-08-06T13:52:31;6.63;;;5.93;;
8654;SDS011;13500;52.514;13.462;2023-08-06T13:54:59;6.37;;;5.80;;
8654;SDS011;13500;52.514;13.462;2023-08-06T13:57:27;6.10;;;5.50;;
8654;SDS011;13500;52.514;13.462;2023-08-06T13:59:54;5.53;;;5.03;;
8654;SDS011;13500;52.514;13.462;2023-08-06T14:02:24;5.73;;;5.23;;
8654;SDS011;13500;52.514;13.462;2023-08-06T14:04:52;5.30;;;4.80;;
8654;SDS011;13500;52.514;13.462;2023-08-06T14:07:20;5.17;;;4.67;;
8654;SDS011;13500;52.514;13.462;2023-08-06T14:09:48;5.00;;;4.50;;
8654;SDS011;13500;52.514;13.462;2023-08-06T14:12:16;5.10;;;4.60;;
8654;SDS011;13500;52.514;13.462;2023-08-06T14:14:44;5.87;;;4.57;;
8654;SDS011;13500;52.514;13.462;2023-08-06T14:17:12;5.57;;;4.80;;
8654;SDS011;13500;52.514;13.462;2023-08-06T14:19:41;5.40;;;4.90;;
8654;SDS011;13500;52.514;13.462;2023-08-06T14:22:09;5.30;;;4.77;;
8654;SDS011;13500;52.514;13.462;2023-08-06T14:24:37;5.20;;;4.73;;
8654;SDS011;13500;52.514;13.462;2023-08-06T14:27:05;6.57;;;4.07;;
8654;SDS011;13500;52.514;13.462;2023-08-06T14:29:33;4.57;;;4.13;;
8654;SDS011;13500;52.514;13.462;2023-08-06T14:32:01;4.37;;;3.90;;
8654;SDS011;13500;52.514;13.462;2023-08-06T14:34:30;4.80;;;4.30;;
8654;SDS011;13500;52.514;13.462;2023-08-06T14:36:59;5.40;;;4.73;;
8654;SDS011;13500;52.514;13.462;2023-08-06T14:39:27;4.47;;;4.03;;
8654;SDS011;13500;52.514;13.462;2023-08-06T14:41:55;4.90;;;4.50;;
8654;SDS011;13500;52.514;13.462;2023-08-06T14:44:23;4.30;;;4.00;;
8654;SDS011;13500;52.514;13.462;2023-08-06T14:46:51;4.90;;;4.40;;
8654;SDS011;13500;52.514;13.462;2023-08-06T14:49:20;5.97;;;4.97;;
8654;SDS011;13500;52.514;13.462;2023-08-06T14:51:47;3.73;;;3.43;;
8654;SDS011;13500;52.514;13.462;2023-08-06T14:54:17;4.83;;;4.03;;